createdAt,value
2018-12-21T00:00:32.199Z,98.90
2018-12-21T00:03:01.089Z,99.20
2018-12-21T00:05:30.904Z,98.70
2018-12-21T00:08:00.441Z,98.50
2018-12-21T00:10:32.386Z,98.80
2018-12-21T00:13:02.402Z,98.60
2018-12-21T00:15:33.435Z,98.70
2018-12-21T00:18:05.251Z,98.90
2018-12-21T00:20:36.540Z,97.80
2018-12-21T00:23:05.988Z,98.20
2018-12-21T00:25:35.288Z,98.10
2018-12-21T00:28:04.297Z,97.50
2018-12-21T00:30:34.612Z,98.50
2018-12-21T00:33:11.861Z,98.40
2018-12-21T00:35:45.947Z,98.20
2018-12-21T00:38:21.092Z,98.40
2018-12-21T00:40:56.176Z,98.10
2018-12-21T00:43:36.492Z,98.20
2018-12-21T00:46:10.322Z,98.20
2018-12-21T00:48:40.792Z,98.80
2018-12-21T00:51:09.975Z,98.40
2018-12-21T00:53:40.420Z,98.60
2018-12-21T00:56:09.956Z,98.60
2018-12-21T00:58:40.227Z,98.10
2018-12-21T01:01:10.138Z,98.00
2018-12-21T01:03:39.358Z,97.90
2018-12-21T01:06:10.529Z,98.40
2018-12-21T01:08:39.356Z,98.20
2018-12-21T01:11:08.448Z,97.40
2018-12-21T01:13:40.480Z,97.40
2018-12-21T01:16:09.191Z,96.50
2018-12-21T01:18:37.962Z,97.40
2018-12-21T01:21:10.837Z,97.70
2018-12-21T01:23:48.619Z,97.80
2018-12-21T01:26:19.320Z,97.60
2018-12-21T01:28:51.728Z,97.50
2018-12-21T01:31:22.647Z,98.00
2018-12-21T01:33:57.850Z,98.30
2018-12-21T01:36:28.218Z,97.90
2018-12-21T01:39:00.068Z,98.20
2018-12-21T01:41:32.061Z,98.30
2018-12-21T01:44:02.551Z,98.10
2018-12-21T01:46:37.642Z,98.00
2018-12-21T01:49:12.627Z,98.00
2018-12-21T01:51:47.062Z,97.70
2018-12-21T01:54:16.621Z,97.80
2018-12-21T01:56:47.013Z,98.00
2018-12-21T01:59:18.043Z,98.00
2018-12-21T02:01:49.168Z,98.10
2018-12-21T02:04:21.898Z,98.30
2018-12-21T02:06:53.072Z,97.90
2018-12-21T02:09:26.715Z,97.70
2018-12-21T02:11:58.771Z,97.30
2018-12-21T02:14:30.235Z,97.00
2018-12-21T02:17:03.226Z,97.60
2018-12-21T02:19:36.642Z,97.30
2018-12-21T02:22:08.584Z,97.30
2018-12-21T02:24:41.843Z,97.50
2018-12-21T02:27:13.010Z,97.90
2018-12-21T02:29:50.714Z,97.10
2018-12-21T02:32:24.621Z,97.60
2018-12-21T02:34:55.523Z,97.20
2018-12-21T02:37:25.198Z,97.90
2018-12-21T02:39:56.982Z,98.10
2018-12-21T02:42:28.095Z,97.90
2018-12-21T02:45:00.387Z,98.80
2018-12-21T02:47:33.109Z,98.60
2018-12-21T02:50:05.859Z,99.40
2018-12-21T02:52:34.973Z,99.90
2018-12-21T02:55:05.129Z,99.90
2018-12-21T02:57:34.807Z,99.90
2018-12-21T03:00:05.333Z,99.90
2018-12-21T03:02:34.113Z,99.90
2018-12-21T03:05:03.688Z,99.90
2018-12-21T03:07:32.392Z,99.90
2018-12-21T03:10:02.569Z,99.90
2018-12-21T03:12:31.827Z,99.90
2018-12-21T03:15:01.408Z,99.90
2018-12-21T03:17:31.290Z,99.90
2018-12-21T03:20:00.266Z,99.90
2018-12-21T03:22:29.046Z,99.90
2018-12-21T03:24:57.729Z,99.90
2018-12-21T03:27:26.736Z,99.90
2018-12-21T03:29:56.373Z,99.90
2018-12-21T03:32:25.273Z,99.90
2018-12-21T03:34:53.957Z,99.90
2018-12-21T03:37:24.468Z,99.90
2018-12-21T03:39:54.120Z,99.90
2018-12-21T03:42:22.733Z,99.90
2018-12-21T03:44:52.634Z,99.90
2018-12-21T03:47:21.264Z,99.90
2018-12-21T03:49:50.456Z,99.90
2018-12-21T03:52:24.114Z,99.90
2018-12-21T03:54:55.547Z,99.90
2018-12-21T03:57:24.153Z,99.90
2018-12-21T03:59:53.500Z,99.90
2018-12-21T04:02:22.152Z,99.90
2018-12-21T04:04:53.295Z,99.90
2018-12-21T04:07:23.409Z,99.90
2018-12-21T04:09:54.266Z,99.90
2018-12-21T04:12:23.832Z,99.90
2018-12-21T04:14:52.280Z,99.90
2018-12-21T04:17:21.678Z,99.90
2018-12-21T04:19:50.930Z,99.90
2018-12-21T04:22:20.379Z,99.90
2018-12-21T04:24:52.904Z,99.90
2018-12-21T04:27:22.196Z,99.90
2018-12-21T04:29:52.972Z,99.90
2018-12-21T04:32:22.362Z,99.90
2018-12-21T04:34:50.797Z,99.90
2018-12-21T04:37:21.353Z,99.90
2018-12-21T04:39:50.085Z,99.90
2018-12-21T04:42:18.570Z,99.90
2018-12-21T04:44:48.260Z,99.90
2018-12-21T04:47:17.801Z,99.90
2018-12-21T04:49:47.162Z,99.90
2018-12-21T04:52:15.724Z,99.90
2018-12-21T04:54:44.272Z,99.90
2018-12-21T04:57:12.890Z,99.90
2018-12-21T04:59:42.096Z,99.90
2018-12-21T05:02:12.621Z,99.90
2018-12-21T05:04:41.497Z,99.90
2018-12-21T05:07:12.666Z,99.90
2018-12-21T05:09:40.388Z,99.90
2018-12-21T05:12:09.905Z,99.90
2018-12-21T05:14:38.630Z,99.90
2018-12-21T05:17:07.149Z,99.90
2018-12-21T05:19:37.758Z,99.90
2018-12-21T05:22:06.174Z,99.90
2018-12-21T05:24:36.803Z,99.90
2018-12-21T05:27:06.810Z,99.90
2018-12-21T05:29:35.981Z,99.90
2018-12-21T05:32:04.900Z,99.90
2018-12-21T05:34:34.537Z,99.90
2018-12-21T05:37:03.827Z,99.90
2018-12-21T05:39:36.430Z,99.90
2018-12-21T05:42:07.909Z,99.90
2018-12-21T05:44:36.310Z,99.90
2018-12-21T05:47:04.689Z,99.90
2018-12-21T05:49:35.254Z,99.90
2018-12-21T05:52:06.117Z,99.90
2018-12-21T05:54:35.680Z,99.90
2018-12-21T05:57:08.168Z,99.90
2018-12-21T05:59:37.780Z,99.90
2018-12-21T06:02:06.249Z,99.90
2018-12-21T06:04:36.236Z,99.90
2018-12-21T06:07:05.909Z,99.90
2018-12-21T06:09:36.364Z,99.90
2018-12-21T06:12:05.618Z,99.90
2018-12-21T06:14:35.920Z,99.90
2018-12-21T06:17:05.350Z,99.90
2018-12-21T06:19:36.868Z,99.90
2018-12-21T06:22:05.922Z,99.90
2018-12-21T06:24:34.439Z,99.90
2018-12-21T06:27:03.035Z,99.90
2018-12-21T06:29:33.055Z,99.90
2018-12-21T06:32:02.156Z,99.90
2018-12-21T06:34:32.105Z,99.90
2018-12-21T06:37:01.155Z,99.90
2018-12-21T06:39:30.199Z,99.90
2018-12-21T06:41:59.323Z,99.90
2018-12-21T06:44:29.027Z,99.90
2018-12-21T06:46:59.295Z,99.90
2018-12-21T06:49:29.007Z,99.90
2018-12-21T06:54:38.351Z,99.90
2018-12-21T06:57:08.336Z,99.90
2018-12-21T06:59:36.529Z,99.90
2018-12-21T07:02:05.085Z,99.90
2018-12-21T07:04:33.285Z,99.90
2018-12-21T07:07:01.464Z,99.90
2018-12-21T07:09:29.782Z,99.90
2018-12-21T07:11:58.002Z,99.90
2018-12-21T07:14:26.311Z,99.90
2018-12-21T07:16:54.669Z,99.90
2018-12-21T07:19:22.973Z,99.90
2018-12-21T07:21:51.197Z,99.90
2018-12-21T07:26:58.485Z,99.90
2018-12-21T07:29:26.756Z,99.90
2018-12-21T07:31:56.028Z,99.90
2018-12-21T07:34:25.984Z,99.90
2018-12-21T07:36:54.537Z,99.90
2018-12-21T07:39:23.040Z,99.90
2018-12-21T07:41:51.250Z,99.90
2018-12-21T07:44:19.427Z,99.90
2018-12-21T07:46:47.772Z,99.90
2018-12-21T07:49:16.020Z,99.90
2018-12-21T07:51:44.323Z,99.90
2018-12-21T07:54:12.705Z,99.90
2018-12-21T07:56:40.940Z,99.90
2018-12-21T07:59:09.196Z,99.90
2018-12-21T08:01:37.578Z,99.90
2018-12-21T08:04:05.843Z,99.90
2018-12-21T08:06:34.081Z,99.90
2018-12-21T08:09:03.341Z,99.90
2018-12-21T08:11:31.587Z,99.90
2018-12-21T08:13:59.850Z,99.90
2018-12-21T08:16:28.275Z,99.90
2018-12-21T08:18:56.483Z,99.90
2018-12-21T08:21:24.801Z,99.90
2018-12-21T08:23:53.112Z,99.90
2018-12-21T08:26:21.281Z,99.90
2018-12-21T08:28:49.525Z,99.90
2018-12-21T08:31:17.901Z,99.90
2018-12-21T08:33:47.049Z,99.90
2018-12-21T08:36:15.802Z,99.90
2018-12-21T08:38:44.149Z,99.90
2018-12-21T08:41:12.363Z,99.90
2018-12-21T08:43:40.592Z,99.90
2018-12-21T08:46:08.883Z,99.90
2018-12-21T08:48:37.095Z,99.90
2018-12-21T08:51:05.906Z,99.90
2018-12-21T08:53:34.177Z,99.90
2018-12-21T08:56:02.412Z,99.90
2018-12-21T08:58:30.712Z,99.90
2018-12-21T09:00:59.048Z,99.90
2018-12-21T09:03:27.401Z,99.90
2018-12-21T09:05:55.710Z,99.90
2018-12-21T09:08:24.044Z,99.90
2018-12-21T09:10:52.286Z,99.90
2018-12-21T09:13:20.663Z,99.90
2018-12-21T09:15:49.125Z,99.90
2018-12-21T09:18:17.321Z,99.90
2018-12-21T09:20:45.497Z,99.90
2018-12-21T09:23:13.848Z,99.90
2018-12-21T09:25:42.180Z,99.90
2018-12-21T09:28:10.396Z,99.90
2018-12-21T09:30:38.633Z,99.90
2018-12-21T09:33:06.946Z,99.90
2018-12-21T09:35:36.005Z,99.90
2018-12-21T09:38:04.373Z,99.90
2018-12-21T09:40:32.732Z,99.90
2018-12-21T09:43:00.920Z,99.90
2018-12-21T09:45:29.318Z,99.90
2018-12-21T09:47:57.527Z,99.90
2018-12-21T09:50:26.008Z,99.90
2018-12-21T09:52:54.227Z,99.90
2018-12-21T09:55:22.405Z,99.90
2018-12-21T09:57:50.825Z,99.90
2018-12-21T10:00:19.044Z,99.90
2018-12-21T10:02:47.653Z,99.90
2018-12-21T10:05:16.962Z,99.90
2018-12-21T10:07:45.159Z,99.90
2018-12-21T10:10:13.527Z,99.90
2018-12-21T10:12:41.901Z,99.90
2018-12-21T10:15:10.505Z,99.90
2018-12-21T10:17:38.785Z,99.90
2018-12-21T10:20:08.830Z,99.90
2018-12-21T10:22:37.134Z,99.90
2018-12-21T10:25:06.288Z,99.90
2018-12-21T10:27:35.309Z,99.90
2018-12-21T10:30:04.597Z,99.90
2018-12-21T10:32:33.051Z,99.90
2018-12-21T10:35:01.284Z,99.90
2018-12-21T10:37:32.055Z,99.90
2018-12-21T10:40:00.622Z,99.90
2018-12-21T10:42:29.152Z,99.90
2018-12-21T10:44:57.363Z,99.90
2018-12-21T10:47:25.817Z,99.90
2018-12-21T10:49:54.144Z,99.90
2018-12-21T10:52:22.472Z,99.90
2018-12-21T10:54:50.786Z,99.90
2018-12-21T10:57:19.046Z,99.90
2018-12-21T10:59:47.262Z,99.90
2018-12-21T11:02:15.650Z,99.90
2018-12-21T11:04:43.981Z,99.90
2018-12-21T11:07:12.584Z,99.90
2018-12-21T11:09:41.213Z,99.90
2018-12-21T11:12:09.636Z,99.90
2018-12-21T11:14:38.127Z,99.90
2018-12-21T11:17:06.334Z,99.90
2018-12-21T11:19:34.857Z,99.90
2018-12-21T11:22:03.198Z,99.90
2018-12-21T11:24:35.376Z,99.90
2018-12-21T11:27:01.761Z,99.90
2018-12-21T11:29:30.135Z,99.90
2018-12-21T11:31:58.392Z,99.90
2018-12-21T11:34:26.719Z,99.90
2018-12-21T11:36:55.238Z,99.90
2018-12-21T11:39:24.130Z,99.90
2018-12-21T11:41:52.525Z,99.90
2018-12-21T11:44:20.970Z,99.90
2018-12-21T11:46:49.338Z,99.90
2018-12-21T11:49:17.661Z,99.90
2018-12-21T11:51:46.213Z,99.90
2018-12-21T11:54:14.545Z,99.90
2018-12-21T11:56:43.135Z,99.90
2018-12-21T11:59:11.808Z,99.90
2018-12-21T12:01:40.148Z,99.90
2018-12-21T12:04:08.434Z,99.90
2018-12-21T12:06:36.926Z,99.90
2018-12-21T12:09:07.453Z,99.90
2018-12-21T12:11:35.853Z,99.90
2018-12-21T12:14:04.293Z,99.90
2018-12-21T12:16:32.518Z,99.90
2018-12-21T12:19:00.809Z,99.90
2018-12-21T12:21:29.187Z,99.90
2018-12-21T12:23:57.489Z,99.90
2018-12-21T12:26:25.714Z,99.90
2018-12-21T12:28:54.123Z,99.90
2018-12-21T12:31:22.421Z,99.90
2018-12-21T12:33:51.120Z,99.00
2018-12-21T12:36:19.988Z,99.80
2018-12-21T12:38:48.449Z,98.70
2018-12-21T12:41:19.396Z,98.70
2018-12-21T12:43:47.745Z,99.00
2018-12-21T12:46:16.067Z,98.30
2018-12-21T12:48:44.526Z,98.10
2018-12-21T12:51:13.222Z,96.90
2018-12-21T12:53:41.840Z,97.80
2018-12-21T12:56:10.823Z,97.10
2018-12-21T12:58:39.241Z,98.00
2018-12-21T13:01:08.162Z,97.30
2018-12-21T13:03:36.893Z,97.30
2018-12-21T13:06:05.260Z,96.70
2018-12-21T13:08:33.753Z,97.50
2018-12-21T13:11:02.224Z,97.10
2018-12-21T13:13:30.800Z,97.50
2018-12-21T13:15:59.554Z,96.60
2018-12-21T13:18:28.144Z,96.60
2018-12-21T13:20:56.943Z,96.20
2018-12-21T13:23:25.748Z,96.50
2018-12-21T13:25:54.635Z,96.80
2018-12-21T13:28:23.107Z,97.20
2018-12-21T13:30:51.592Z,97.30
2018-12-21T13:33:20.029Z,96.40
2018-12-21T13:35:48.506Z,96.80
2018-12-21T13:38:17.132Z,97.40
2018-12-21T13:40:45.645Z,96.70
2018-12-21T13:43:14.750Z,96.70
2018-12-21T13:45:43.275Z,96.90
2018-12-21T13:48:11.719Z,96.50
2018-12-21T13:50:40.343Z,96.60
2018-12-21T13:53:08.902Z,96.30
2018-12-21T13:55:38.099Z,96.20
2018-12-21T13:58:06.597Z,96.10
2018-12-21T14:00:35.011Z,96.20
2018-12-21T14:03:03.393Z,96.20
2018-12-21T14:05:31.764Z,96.80
2018-12-21T14:08:00.288Z,96.80
2018-12-21T14:10:28.989Z,96.90
2018-12-21T14:12:57.471Z,97.20
2018-12-21T14:15:26.036Z,97.00
2018-12-21T14:17:54.460Z,96.40
2018-12-21T14:20:22.931Z,96.10
2018-12-21T14:22:51.287Z,95.60
2018-12-21T14:25:19.526Z,95.60
2018-12-21T14:27:48.230Z,96.50
2018-12-21T14:30:16.692Z,97.90
2018-12-21T14:32:44.954Z,98.60
2018-12-21T14:35:13.436Z,98.90
2018-12-21T14:37:41.793Z,98.40
2018-12-21T14:40:10.060Z,98.40
2018-12-21T14:42:38.579Z,99.00
2018-12-21T14:45:07.445Z,98.90
2018-12-21T14:47:35.718Z,98.70
2018-12-21T14:50:06.782Z,98.20
2018-12-21T14:52:35.153Z,97.60
2018-12-21T14:55:04.451Z,97.30
2018-12-21T14:57:32.780Z,97.10
2018-12-21T15:00:01.137Z,96.80
2018-12-21T15:02:29.533Z,96.40
2018-12-21T15:04:57.901Z,95.70
2018-12-21T15:07:26.443Z,95.30
2018-12-21T15:09:54.743Z,94.80
2018-12-21T15:12:22.956Z,94.90
2018-12-21T15:14:51.322Z,93.90
2018-12-21T15:17:19.556Z,93.30
2018-12-21T15:19:47.858Z,93.70
2018-12-21T15:22:16.253Z,93.00
2018-12-21T15:24:44.530Z,93.00
2018-12-21T15:27:12.840Z,94.00
2018-12-21T15:29:41.417Z,93.90
2018-12-21T15:32:09.947Z,94.90
2018-12-21T15:34:38.298Z,94.60
2018-12-21T15:37:06.778Z,95.00
2018-12-21T15:39:35.369Z,94.90
2018-12-21T15:42:03.858Z,94.30
2018-12-21T15:44:32.331Z,94.30
2018-12-21T15:47:08.796Z,94.70
2018-12-21T15:49:31.145Z,94.60
2018-12-21T15:51:59.633Z,95.10
2018-12-21T15:54:28.101Z,94.90
2018-12-21T15:56:56.771Z,95.80
2018-12-21T15:59:25.183Z,95.60
2018-12-21T16:01:53.895Z,96.00
2018-12-21T16:04:22.426Z,96.00
2018-12-21T16:06:50.835Z,95.90
2018-12-21T16:09:19.169Z,95.10
2018-12-21T16:11:47.493Z,95.70
2018-12-21T16:14:15.974Z,95.80
2018-12-21T16:16:44.400Z,95.60
2018-12-21T16:19:12.852Z,94.90
2018-12-21T16:21:41.218Z,94.90
2018-12-21T16:24:09.592Z,94.50
2018-12-21T16:26:37.983Z,94.30
2018-12-21T16:29:06.365Z,94.90
2018-12-21T16:31:35.167Z,94.90
2018-12-21T16:34:04.171Z,94.10
2018-12-21T16:36:32.743Z,94.80
2018-12-21T16:41:39.858Z,94.70
2018-12-21T16:44:08.361Z,94.50
2018-12-21T16:46:36.726Z,94.70
2018-12-21T16:51:50.394Z,94.60
2018-12-21T16:54:18.991Z,94.70
2018-12-21T16:56:47.309Z,95.00
2018-12-21T16:59:15.641Z,95.20
2018-12-21T17:01:44.118Z,94.90
2018-12-21T17:04:12.470Z,94.70
2018-12-21T17:06:40.974Z,95.00
2018-12-21T17:09:09.583Z,94.90
2018-12-21T17:11:38.141Z,94.80
2018-12-21T17:14:06.926Z,95.00
2018-12-21T17:16:35.182Z,94.70
2018-12-21T17:19:13.608Z,95.50
2018-12-21T17:21:41.913Z,95.00
2018-12-21T17:24:10.342Z,94.40
2018-12-21T17:26:38.854Z,94.40
2018-12-21T17:29:07.250Z,94.30
2018-12-21T17:31:35.601Z,94.60
2018-12-21T17:34:04.054Z,94.70
2018-12-21T17:36:32.582Z,94.60
2018-12-21T17:39:01.046Z,95.20
2018-12-21T17:41:29.430Z,94.90
2018-12-21T17:43:57.849Z,95.50
2018-12-21T17:46:26.199Z,94.80
2018-12-21T17:48:54.574Z,95.00
2018-12-21T17:51:23.586Z,95.70
2018-12-21T17:53:52.079Z,95.60
2018-12-21T17:56:20.425Z,95.40
2018-12-21T17:58:48.916Z,95.20
2018-12-21T18:01:18.138Z,95.10
2018-12-21T18:04:21.202Z,95.10
2018-12-21T18:06:49.484Z,95.60
2018-12-21T18:09:17.938Z,95.80
2018-12-21T18:11:46.321Z,95.40
2018-12-21T18:14:14.768Z,95.70
2018-12-21T18:16:43.146Z,95.40
2018-12-21T18:19:11.526Z,94.90
2018-12-21T18:21:49.358Z,95.30
2018-12-21T18:24:17.820Z,95.00
2018-12-21T18:26:46.115Z,95.30
2018-12-21T18:29:14.721Z,95.50
2018-12-21T18:32:52.634Z,94.90
2018-12-21T18:35:21.448Z,95.50
2018-12-21T18:38:01.018Z,94.90
2018-12-21T18:40:30.702Z,95.00
2018-12-21T18:43:00.656Z,95.20
2018-12-21T18:45:30.628Z,95.20
2018-12-21T18:47:59.102Z,94.70
2018-12-21T18:50:29.437Z,94.70
2018-12-21T18:52:57.988Z,95.20
2018-12-21T18:55:27.175Z,95.00
2018-12-21T18:57:55.769Z,94.90
2018-12-21T19:00:25.203Z,95.20
2018-12-21T19:02:54.092Z,94.60
2018-12-21T19:05:23.123Z,94.60
2018-12-21T19:07:54.027Z,95.10
2018-12-21T19:10:23.347Z,94.50
2018-12-21T19:12:51.761Z,94.90
2018-12-21T19:15:22.571Z,94.80
2018-12-21T19:17:51.303Z,95.40
2018-12-21T19:20:19.983Z,95.30
2018-12-21T19:22:49.090Z,95.40
2018-12-21T19:25:19.335Z,95.20
2018-12-21T19:27:48.599Z,95.40
2018-12-21T19:30:17.015Z,95.80
2018-12-21T19:32:46.566Z,96.10
2018-12-21T19:35:15.636Z,96.90
2018-12-21T19:37:44.053Z,97.40
2018-12-21T19:40:13.850Z,98.20
2018-12-21T19:42:44.955Z,98.90
2018-12-21T19:45:14.525Z,98.70
2018-12-21T19:47:43.011Z,99.20
2018-12-21T19:50:13.702Z,99.10
2018-12-21T19:52:42.301Z,98.50
2018-12-21T19:57:22.972Z,98.00
2018-12-21T19:59:51.669Z,97.90
2018-12-21T20:02:20.915Z,97.60
2018-12-21T20:04:49.714Z,98.10
2018-12-21T20:07:18.863Z,98.10
2018-12-21T20:09:48.214Z,98.10
2018-12-21T20:12:16.662Z,97.90
2018-12-21T20:14:45.223Z,97.50
2018-12-21T20:17:13.774Z,97.50
2018-12-21T20:19:42.327Z,97.30
2018-12-21T20:22:10.851Z,97.00
2018-12-21T20:24:40.731Z,97.20
2018-12-21T20:27:14.380Z,96.60
2018-12-21T20:30:02.457Z,95.90
2018-12-21T20:32:30.966Z,96.70
2018-12-21T20:34:59.510Z,96.20
2018-12-21T20:37:28.161Z,95.80
2018-12-21T20:39:56.762Z,96.40
2018-12-21T20:42:25.223Z,96.30
2018-12-21T20:44:54.109Z,96.00
2018-12-21T20:47:22.722Z,96.20
2018-12-21T20:49:51.150Z,96.80
2018-12-21T20:52:19.735Z,97.10
2018-12-21T20:54:48.739Z,97.80
2018-12-21T20:57:22.052Z,98.00
2018-12-21T20:59:49.839Z,96.90
2018-12-21T21:02:18.343Z,96.80
2018-12-21T21:04:48.333Z,96.50
2018-12-21T21:07:16.984Z,97.00
2018-12-21T21:09:45.387Z,96.40
2018-12-21T21:12:13.787Z,97.00
2018-12-21T21:14:42.399Z,97.10
2018-12-21T21:17:10.731Z,96.90
2018-12-21T21:19:39.766Z,96.50
2018-12-21T21:22:08.441Z,96.70
2018-12-21T21:24:37.306Z,96.40
2018-12-21T21:27:06.478Z,96.80
2018-12-21T21:29:36.174Z,96.80
2018-12-21T21:32:04.588Z,96.70
2018-12-21T21:34:47.592Z,96.50
2018-12-21T21:37:16.054Z,96.50
2018-12-21T21:39:44.431Z,96.20
2018-12-21T21:42:13.010Z,95.60
2018-12-21T21:44:41.523Z,95.70
2018-12-21T21:47:10.052Z,96.00
2018-12-21T21:49:38.502Z,95.70
2018-12-21T21:52:07.579Z,95.50
2018-12-21T21:54:36.364Z,95.40
2018-12-21T21:57:04.859Z,95.60
2018-12-21T21:59:33.270Z,95.60
2018-12-21T22:02:01.683Z,95.20
2018-12-21T22:04:30.102Z,95.60
2018-12-21T22:07:02.769Z,95.40
2018-12-21T22:09:32.332Z,95.80
2018-12-21T22:12:00.947Z,95.80
2018-12-21T22:14:29.572Z,95.30
2018-12-21T22:16:58.682Z,95.60
2018-12-21T22:19:27.102Z,95.40
2018-12-21T22:21:55.802Z,96.00
2018-12-21T22:24:24.428Z,96.10
2018-12-21T22:26:52.957Z,95.90
2018-12-21T22:29:21.521Z,95.90
2018-12-21T22:31:57.487Z,96.10
2018-12-21T22:34:26.510Z,96.30
2018-12-21T22:36:58.188Z,95.60
2018-12-21T22:39:26.890Z,95.80
2018-12-21T22:41:55.358Z,95.80
2018-12-21T22:44:23.958Z,96.20
2018-12-21T22:46:52.498Z,96.30
2018-12-21T22:49:21.018Z,96.10
2018-12-21T22:51:49.604Z,96.60
2018-12-21T22:54:18.167Z,96.00
2018-12-21T22:56:46.594Z,96.00
2018-12-21T22:59:15.101Z,96.80
2018-12-21T23:01:43.741Z,96.20
2018-12-21T23:04:12.144Z,96.60
2018-12-21T23:06:40.633Z,96.00
2018-12-21T23:09:09.259Z,96.80
2018-12-21T23:11:37.583Z,96.20
2018-12-21T23:14:06.094Z,95.80
2018-12-21T23:16:34.999Z,95.90
2018-12-21T23:19:03.381Z,95.80
2018-12-21T23:21:31.868Z,96.40
2018-12-21T23:24:00.374Z,97.10
2018-12-21T23:26:28.788Z,97.50
2018-12-21T23:28:57.128Z,97.20
2018-12-21T23:31:25.646Z,97.80
2018-12-21T23:33:57.571Z,97.90
2018-12-21T23:36:30.855Z,97.90
2018-12-21T23:38:59.280Z,97.80
2018-12-21T23:41:28.610Z,98.00
2018-12-21T23:43:57.299Z,97.80
2018-12-21T23:46:26.458Z,98.10
2018-12-21T23:48:54.922Z,98.20
2018-12-21T23:51:23.725Z,98.90
2018-12-21T23:53:52.079Z,98.80
2018-12-21T23:56:20.560Z,98.20
2018-12-21T23:58:49.068Z,98.50
